sensor_id;sensor_type;location;lat;lon;timestamp;P1;durP1;ratioP1;P2;durP2;ratioP2
80926;SDS011;70385;44.538;18.532;2024-03-23T00:54:18;127.82;;;56.40;;
80926;SDS011;70385;44.538;18.532;2024-03-23T00:56:44;128.35;;;54.30;;
80926;SDS011;70385;44.538;18.532;2024-03-23T00:59:10;119.20;;;50.83;;
80926;SDS011;70385;44.538;18.532;2024-03-23T01:01:35;106.00;;;47.20;;
80926;SDS011;70385;44.538;18.532;2024-03-23T01:04:02;113.60;;;50.40;;
80926;SDS011;70385;44.538;18.532;2024-03-23T01:06:28;106.18;;;45.80;;
80926;SDS011;70385;44.538;18.532;2024-03-23T01:08:54;114.88;;;47.65;;
80926;SDS011;70385;44.538;18.532;2024-03-23T01:11:19;114.28;;;46.95;;
80926;SDS011;70385;44.538;18.532;2024-03-23T01:13:45;106.70;;;46.88;;
80926;SDS011;70385;44.538;18.532;2024-03-23T01:16:11;117.72;;;48.35;;
80926;SDS011;70385;44.538;18.532;2024-03-23T01:18:37;107.07;;;47.10;;
80926;SDS011;70385;44.538;18.532;2024-03-23T01:21:03;125.63;;;53.17;;
80926;SDS011;70385;44.538;18.532;2024-03-23T01:23:29;117.68;;;51.78;;
80926;SDS011;70385;44.538;18.532;2024-03-23T01:25:54;126.28;;;53.50;;
80926;SDS011;70385;44.538;18.532;2024-03-23T01:28:21;124.03;;;53.33;;
80926;SDS011;70385;44.538;18.532;2024-03-23T01:30:47;121.35;;;52.20;;
80926;SDS011;70385;44.538;18.532;2024-03-23T01:33:13;115.97;;;53.00;;
80926;SDS011;70385;44.538;18.532;2024-03-23T01:35:39;106.60;;;48.50;;
80926;SDS011;70385;44.538;18.532;2024-03-23T01:38:05;114.55;;;48.05;;
80926;SDS011;70385;44.538;18.532;2024-03-23T01:40:34;108.63;;;46.10;;
80926;SDS011;70385;44.538;18.532;2024-03-23T01:43:04;93.63;;;44.65;;
80926;SDS011;70385;44.538;18.532;2024-03-23T01:45:31;87.30;;;39.60;;
80926;SDS011;70385;44.538;18.532;2024-03-23T01:48:20;101.35;;;44.00;;
80926;SDS011;70385;44.538;18.532;2024-03-23T01:50:50;99.38;;;46.13;;
80926;SDS011;70385;44.538;18.532;2024-03-23T01:53:16;112.70;;;52.03;;
80926;SDS011;70385;44.538;18.532;2024-03-23T01:55:47;112.28;;;51.13;;
80926;SDS011;70385;44.538;18.532;2024-03-23T01:58:13;107.72;;;48.80;;
80926;SDS011;70385;44.538;18.532;2024-03-23T02:00:39;105.78;;;45.83;;
80926;SDS011;70385;44.538;18.532;2024-03-23T02:03:26;114.88;;;51.90;;
80926;SDS011;70385;44.538;18.532;2024-03-23T02:05:53;106.47;;;47.75;;
80926;SDS011;70385;44.538;18.532;2024-03-23T02:08:20;112.85;;;48.28;;
80926;SDS011;70385;44.538;18.532;2024-03-23T02:10:47;101.05;;;47.95;;
80926;SDS011;70385;44.538;18.532;2024-03-23T02:13:14;95.22;;;43.92;;
80926;SDS011;70385;44.538;18.532;2024-03-23T02:15:41;91.80;;;41.67;;
80926;SDS011;70385;44.538;18.532;2024-03-23T02:18:08;80.07;;;37.80;;
80926;SDS011;70385;44.538;18.532;2024-03-23T02:20:37;76.63;;;35.80;;
80926;SDS011;70385;44.538;18.532;2024-03-23T02:23:04;76.35;;;37.67;;
80926;SDS011;70385;44.538;18.532;2024-03-23T02:25:34;77.80;;;36.72;;
80926;SDS011;70385;44.538;18.532;2024-03-23T02:28:00;86.80;;;40.65;;
80926;SDS011;70385;44.538;18.532;2024-03-23T02:30:26;104.28;;;47.33;;
80926;SDS011;70385;44.538;18.532;2024-03-23T02:32:52;101.82;;;46.03;;
80926;SDS011;70385;44.538;18.532;2024-03-23T02:35:18;87.32;;;42.33;;
80926;SDS011;70385;44.538;18.532;2024-03-23T02:37:45;97.70;;;45.70;;
80926;SDS011;70385;44.538;18.532;2024-03-23T02:40:11;101.07;;;44.22;;
80926;SDS011;70385;44.538;18.532;2024-03-23T02:42:37;99.82;;;40.92;;
80926;SDS011;70385;44.538;18.532;2024-03-23T02:45:03;91.38;;;41.05;;
80926;SDS011;70385;44.538;18.532;2024-03-23T02:47:30;86.40;;;42.17;;
80926;SDS011;70385;44.538;18.532;2024-03-23T02:49:56;96.00;;;43.22;;
80926;SDS011;70385;44.538;18.532;2024-03-23T02:52:22;91.05;;;43.67;;
80926;SDS011;70385;44.538;18.532;2024-03-23T02:54:48;81.85;;;40.67;;
80926;SDS011;70385;44.538;18.532;2024-03-23T02:57:13;82.68;;;39.38;;
80926;SDS011;70385;44.538;18.532;2024-03-23T02:59:39;83.22;;;38.30;;
80926;SDS011;70385;44.538;18.532;2024-03-23T03:02:06;80.78;;;39.55;;
80926;SDS011;70385;44.538;18.532;2024-03-23T03:04:32;84.80;;;40.38;;
80926;SDS011;70385;44.538;18.532;2024-03-23T03:06:58;86.80;;;42.13;;
80926;SDS011;70385;44.538;18.532;2024-03-23T03:09:24;83.22;;;38.88;;
80926;SDS011;70385;44.538;18.532;2024-03-23T03:11:50;84.22;;;39.53;;
80926;SDS011;70385;44.538;18.532;2024-03-23T03:14:16;77.07;;;36.78;;
80926;SDS011;70385;44.538;18.532;2024-03-23T03:16:43;86.28;;;43.88;;
80926;SDS011;70385;44.538;18.532;2024-03-23T03:19:08;83.72;;;38.80;;
80926;SDS011;70385;44.538;18.532;2024-03-23T03:21:35;79.15;;;37.70;;
80926;SDS011;70385;44.538;18.532;2024-03-23T03:24:02;81.43;;;40.00;;
80926;SDS011;70385;44.538;18.532;2024-03-23T03:26:28;76.68;;;38.65;;
80926;SDS011;70385;44.538;18.532;2024-03-23T03:28:54;81.60;;;39.38;;
80926;SDS011;70385;44.538;18.532;2024-03-23T03:31:20;78.53;;;37.92;;
80926;SDS011;70385;44.538;18.532;2024-03-23T03:33:46;82.20;;;39.08;;
80926;SDS011;70385;44.538;18.532;2024-03-23T03:36:12;78.05;;;38.90;;
80926;SDS011;70385;44.538;18.532;2024-03-23T03:38:38;92.30;;;43.17;;
80926;SDS011;70385;44.538;18.532;2024-03-23T03:41:04;80.30;;;40.58;;
80926;SDS011;70385;44.538;18.532;2024-03-23T03:43:34;91.28;;;42.72;;
80926;SDS011;70385;44.538;18.532;2024-03-23T03:46:00;86.75;;;43.05;;
80926;SDS011;70385;44.538;18.532;2024-03-23T03:48:26;82.63;;;43.88;;
80926;SDS011;70385;44.538;18.532;2024-03-23T03:50:55;90.85;;;41.83;;
80926;SDS011;70385;44.538;18.532;2024-03-23T03:53:21;80.00;;;42.17;;
80926;SDS011;70385;44.538;18.532;2024-03-23T03:55:47;84.72;;;42.70;;
80926;SDS011;70385;44.538;18.532;2024-03-23T03:58:13;75.25;;;39.28;;
80926;SDS011;70385;44.538;18.532;2024-03-23T04:00:44;88.25;;;42.58;;
80926;SDS011;70385;44.538;18.532;2024-03-23T04:03:10;86.93;;;42.83;;
80926;SDS011;70385;44.538;18.532;2024-03-23T04:05:36;90.75;;;41.88;;
80926;SDS011;70385;44.538;18.532;2024-03-23T04:08:03;99.13;;;44.15;;
80926;SDS011;70385;44.538;18.532;2024-03-23T04:10:30;87.53;;;41.05;;
80926;SDS011;70385;44.538;18.532;2024-03-23T04:12:58;74.55;;;37.80;;
80926;SDS011;70385;44.538;18.532;2024-03-23T04:15:23;72.68;;;36.95;;
80926;SDS011;70385;44.538;18.532;2024-03-23T04:17:49;79.05;;;40.92;;
80926;SDS011;70385;44.538;18.532;2024-03-23T04:20:16;85.03;;;41.80;;
80926;SDS011;70385;44.538;18.532;2024-03-23T04:22:42;81.60;;;37.58;;
80926;SDS011;70385;44.538;18.532;2024-03-23T04:25:09;81.70;;;37.80;;
80926;SDS011;70385;44.538;18.532;2024-03-23T04:27:36;85.82;;;39.65;;
80926;SDS011;70385;44.538;18.532;2024-03-23T04:30:03;77.03;;;37.10;;
80926;SDS011;70385;44.538;18.532;2024-03-23T04:32:33;70.13;;;35.03;;
80926;SDS011;70385;44.538;18.532;2024-03-23T04:34:59;77.50;;;37.22;;
80926;SDS011;70385;44.538;18.532;2024-03-23T04:37:26;80.93;;;39.63;;
80926;SDS011;70385;44.538;18.532;2024-03-23T04:39:52;79.47;;;38.38;;
80926;SDS011;70385;44.538;18.532;2024-03-23T04:42:18;82.47;;;37.97;;
80926;SDS011;70385;44.538;18.532;2024-03-23T04:44:43;81.25;;;39.08;;
80926;SDS011;70385;44.538;18.532;2024-03-23T04:47:10;84.00;;;39.65;;
80926;SDS011;70385;44.538;18.532;2024-03-23T04:49:40;83.00;;;39.63;;
80926;SDS011;70385;44.538;18.532;2024-03-23T04:52:06;82.72;;;38.75;;
80926;SDS011;70385;44.538;18.532;2024-03-23T04:54:32;89.75;;;41.15;;
80926;SDS011;70385;44.538;18.532;2024-03-23T04:56:59;92.72;;;42.63;;
80926;SDS011;70385;44.538;18.532;2024-03-23T04:59:25;87.47;;;40.63;;
80926;SDS011;70385;44.538;18.532;2024-03-23T05:01:51;87.22;;;41.85;;
80926;SDS011;70385;44.538;18.532;2024-03-23T05:04:17;89.25;;;41.67;;
80926;SDS011;70385;44.538;18.532;2024-03-23T05:06:43;83.50;;;41.60;;
80926;SDS011;70385;44.538;18.532;2024-03-23T05:09:12;73.50;;;38.63;;
80926;SDS011;70385;44.538;18.532;2024-03-23T05:11:38;86.78;;;37.38;;
80926;SDS011;70385;44.538;18.532;2024-03-23T05:14:04;83.18;;;40.85;;
80926;SDS011;70385;44.538;18.532;2024-03-23T05:16:30;74.32;;;37.78;;
80926;SDS011;70385;44.538;18.532;2024-03-23T05:18:58;80.35;;;39.50;;
80926;SDS011;70385;44.538;18.532;2024-03-23T05:21:24;76.13;;;37.40;;
80926;SDS011;70385;44.538;18.532;2024-03-23T05:24:02;83.03;;;38.97;;
80926;SDS011;70385;44.538;18.532;2024-03-23T05:26:28;79.55;;;38.63;;
80926;SDS011;70385;44.538;18.532;2024-03-23T05:28:54;76.88;;;37.97;;
80926;SDS011;70385;44.538;18.532;2024-03-23T05:31:31;78.32;;;36.75;;
80926;SDS011;70385;44.538;18.532;2024-03-23T05:34:09;81.03;;;39.88;;
80926;SDS011;70385;44.538;18.532;2024-03-23T05:36:46;78.22;;;40.45;;
80926;SDS011;70385;44.538;18.532;2024-03-23T05:39:18;78.25;;;41.60;;
80926;SDS011;70385;44.538;18.532;2024-03-23T05:41:50;86.15;;;41.08;;
80926;SDS011;70385;44.538;18.532;2024-03-23T05:44:16;87.65;;;41.22;;
80926;SDS011;70385;44.538;18.532;2024-03-23T05:46:45;77.00;;;38.83;;
80926;SDS011;70385;44.538;18.532;2024-03-23T05:49:14;93.88;;;43.83;;
80926;SDS011;70385;44.538;18.532;2024-03-23T05:51:42;81.88;;;41.63;;
80926;SDS011;70385;44.538;18.532;2024-03-23T05:54:10;79.75;;;40.85;;
80926;SDS011;70385;44.538;18.532;2024-03-23T05:56:36;79.38;;;38.22;;
80926;SDS011;70385;44.538;18.532;2024-03-23T05:59:02;79.00;;;40.22;;
80926;SDS011;70385;44.538;18.532;2024-03-23T06:01:28;78.22;;;38.60;;
80926;SDS011;70385;44.538;18.532;2024-03-23T06:03:57;75.10;;;39.80;;
80926;SDS011;70385;44.538;18.532;2024-03-23T06:06:24;75.20;;;37.85;;
80926;SDS011;70385;44.538;18.532;2024-03-23T06:08:49;69.95;;;34.70;;
80926;SDS011;70385;44.538;18.532;2024-03-23T06:11:16;78.80;;;37.58;;
80926;SDS011;70385;44.538;18.532;2024-03-23T06:13:43;75.93;;;38.25;;
80926;SDS011;70385;44.538;18.532;2024-03-23T06:16:09;70.97;;;35.95;;
80926;SDS011;70385;44.538;18.532;2024-03-23T06:18:36;67.18;;;34.05;;
80926;SDS011;70385;44.538;18.532;2024-03-23T06:21:01;69.40;;;34.10;;
80926;SDS011;70385;44.538;18.532;2024-03-23T06:23:27;70.22;;;34.20;;
80926;SDS011;70385;44.538;18.532;2024-03-23T06:25:56;71.05;;;33.97;;
80926;SDS011;70385;44.538;18.532;2024-03-23T06:28:23;68.72;;;34.63;;
80926;SDS011;70385;44.538;18.532;2024-03-23T06:30:50;77.25;;;35.65;;
80926;SDS011;70385;44.538;18.532;2024-03-23T06:33:16;72.40;;;34.15;;
80926;SDS011;70385;44.538;18.532;2024-03-23T06:35:43;68.43;;;35.80;;
80926;SDS011;70385;44.538;18.532;2024-03-23T06:38:21;76.47;;;34.33;;
80926;SDS011;70385;44.538;18.532;2024-03-23T06:40:46;64.63;;;32.83;;
80926;SDS011;70385;44.538;18.532;2024-03-23T06:43:16;65.95;;;32.55;;
80926;SDS011;70385;44.538;18.532;2024-03-23T06:45:44;64.70;;;32.20;;
80926;SDS011;70385;44.538;18.532;2024-03-23T06:48:18;67.53;;;33.63;;
80926;SDS011;70385;44.538;18.532;2024-03-23T06:50:45;64.22;;;32.42;;
80926;SDS011;70385;44.538;18.532;2024-03-23T06:53:12;63.28;;;33.03;;
80926;SDS011;70385;44.538;18.532;2024-03-23T06:55:38;60.83;;;32.13;;
80926;SDS011;70385;44.538;18.532;2024-03-23T06:58:07;65.50;;;31.10;;
80926;SDS011;70385;44.538;18.532;2024-03-23T07:00:35;57.58;;;29.85;;
80926;SDS011;70385;44.538;18.532;2024-03-23T07:03:01;61.85;;;30.65;;
80926;SDS011;70385;44.538;18.532;2024-03-23T07:05:29;69.10;;;33.15;;
80926;SDS011;70385;44.538;18.532;2024-03-23T07:07:55;59.83;;;30.13;;
80926;SDS011;70385;44.538;18.532;2024-03-23T07:10:20;59.00;;;30.27;;
80926;SDS011;70385;44.538;18.532;2024-03-23T07:12:47;60.42;;;29.23;;
80926;SDS011;70385;44.538;18.532;2024-03-23T07:15:12;57.88;;;29.27;;
80926;SDS011;70385;44.538;18.532;2024-03-23T07:17:38;57.78;;;30.95;;
80926;SDS011;70385;44.538;18.532;2024-03-23T07:20:13;62.83;;;31.08;;
80926;SDS011;70385;44.538;18.532;2024-03-23T07:22:39;55.85;;;29.95;;
80926;SDS011;70385;44.538;18.532;2024-03-23T07:25:06;61.22;;;31.52;;
80926;SDS011;70385;44.538;18.532;2024-03-23T07:27:33;59.35;;;29.25;;
80926;SDS011;70385;44.538;18.532;2024-03-23T07:30:00;54.97;;;29.80;;
80926;SDS011;70385;44.538;18.532;2024-03-23T07:32:28;56.03;;;28.67;;
80926;SDS011;70385;44.538;18.532;2024-03-23T07:34:54;49.83;;;26.90;;
80926;SDS011;70385;44.538;18.532;2024-03-23T07:37:20;56.65;;;28.08;;
80926;SDS011;70385;44.538;18.532;2024-03-23T07:39:51;54.58;;;27.45;;
80926;SDS011;70385;44.538;18.532;2024-03-23T07:42:17;51.53;;;27.77;;
80926;SDS011;70385;44.538;18.532;2024-03-23T07:44:42;56.70;;;28.08;;
80926;SDS011;70385;44.538;18.532;2024-03-23T07:47:09;55.03;;;26.80;;
80926;SDS011;70385;44.538;18.532;2024-03-23T07:49:34;52.67;;;28.88;;
80926;SDS011;70385;44.538;18.532;2024-03-23T07:52:01;53.50;;;28.15;;
80926;SDS011;70385;44.538;18.532;2024-03-23T07:54:27;54.60;;;26.67;;
80926;SDS011;70385;44.538;18.532;2024-03-23T07:56:55;47.53;;;26.80;;
80926;SDS011;70385;44.538;18.532;2024-03-23T07:59:22;51.60;;;27.42;;
80926;SDS011;70385;44.538;18.532;2024-03-23T08:01:47;52.08;;;28.65;;
80926;SDS011;70385;44.538;18.532;2024-03-23T08:04:13;46.60;;;26.13;;
80926;SDS011;70385;44.538;18.532;2024-03-23T08:06:39;51.28;;;26.90;;
80926;SDS011;70385;44.538;18.532;2024-03-23T08:09:05;46.35;;;24.60;;
80926;SDS011;70385;44.538;18.532;2024-03-23T08:11:36;45.30;;;25.25;;
80926;SDS011;70385;44.538;18.532;2024-03-23T08:14:04;47.25;;;25.83;;
80926;SDS011;70385;44.538;18.532;2024-03-23T08:16:31;44.78;;;24.92;;
80926;SDS011;70385;44.538;18.532;2024-03-23T08:18:57;39.90;;;22.48;;
80926;SDS011;70385;44.538;18.532;2024-03-23T08:21:23;45.78;;;22.08;;
80926;SDS011;70385;44.538;18.532;2024-03-23T08:23:50;36.00;;;22.05;;
80926;SDS011;70385;44.538;18.532;2024-03-23T08:26:16;38.55;;;22.13;;
80926;SDS011;70385;44.538;18.532;2024-03-23T08:28:45;41.35;;;22.73;;
80926;SDS011;70385;44.538;18.532;2024-03-23T08:31:11;39.83;;;21.48;;
80926;SDS011;70385;44.538;18.532;2024-03-23T08:33:38;33.95;;;20.65;;
80926;SDS011;70385;44.538;18.532;2024-03-23T08:36:08;33.70;;;19.42;;
80926;SDS011;70385;44.538;18.532;2024-03-23T08:38:37;29.00;;;16.40;;
80926;SDS011;70385;44.538;18.532;2024-03-23T08:41:07;29.75;;;16.50;;
80926;SDS011;70385;44.538;18.532;2024-03-23T08:43:42;28.77;;;16.10;;
80926;SDS011;70385;44.538;18.532;2024-03-23T08:46:14;28.95;;;15.23;;
80926;SDS011;70385;44.538;18.532;2024-03-23T08:48:48;22.52;;;14.48;;
80926;SDS011;70385;44.538;18.532;2024-03-23T08:51:17;26.63;;;13.68;;
80926;SDS011;70385;44.538;18.532;2024-03-23T08:53:43;24.02;;;13.27;;
80926;SDS011;70385;44.538;18.532;2024-03-23T08:56:11;22.50;;;12.35;;
80926;SDS011;70385;44.538;18.532;2024-03-23T08:58:41;19.63;;;11.65;;
80926;SDS011;70385;44.538;18.532;2024-03-23T09:01:08;26.95;;;11.43;;
80926;SDS011;70385;44.538;18.532;2024-03-23T09:03:36;19.65;;;10.57;;
80926;SDS011;70385;44.538;18.532;2024-03-23T09:06:06;21.95;;;9.85;;
80926;SDS011;70385;44.538;18.532;2024-03-23T09:08:36;28.75;;;10.63;;
80926;SDS011;70385;44.538;18.532;2024-03-23T09:11:03;22.35;;;10.02;;
80926;SDS011;70385;44.538;18.532;2024-03-23T09:13:37;15.70;;;9.05;;
80926;SDS011;70385;44.538;18.532;2024-03-23T09:16:05;15.05;;;9.13;;
80926;SDS011;70385;44.538;18.532;2024-03-23T09:18:32;19.00;;;8.80;;
80926;SDS011;70385;44.538;18.532;2024-03-23T09:21:02;23.33;;;9.23;;
80926;SDS011;70385;44.538;18.532;2024-03-23T09:23:29;18.08;;;9.13;;
80926;SDS011;70385;44.538;18.532;2024-03-23T09:25:57;17.35;;;8.85;;
80926;SDS011;70385;44.538;18.532;2024-03-23T09:28:28;14.45;;;8.43;;
80926;SDS011;70385;44.538;18.532;2024-03-23T09:30:54;14.93;;;8.15;;
80926;SDS011;70385;44.538;18.532;2024-03-23T09:33:23;14.60;;;8.35;;
80926;SDS011;70385;44.538;18.532;2024-03-23T09:35:48;14.68;;;7.90;;
80926;SDS011;70385;44.538;18.532;2024-03-23T09:38:14;13.82;;;7.35;;
80926;SDS011;70385;44.538;18.532;2024-03-23T09:40:40;12.88;;;8.13;;
80926;SDS011;70385;44.538;18.532;2024-03-23T09:43:09;13.77;;;8.60;;
80926;SDS011;70385;44.538;18.532;2024-03-23T09:45:39;12.63;;;7.15;;
80926;SDS011;70385;44.538;18.532;2024-03-23T09:48:09;12.68;;;7.07;;
80926;SDS011;70385;44.538;18.532;2024-03-23T09:50:40;13.70;;;6.50;;
80926;SDS011;70385;44.538;18.532;2024-03-23T09:53:11;10.05;;;5.25;;
80926;SDS011;70385;44.538;18.532;2024-03-23T09:55:38;9.48;;;5.47;;
80926;SDS011;70385;44.538;18.532;2024-03-23T09:58:05;22.20;;;7.95;;
80926;SDS011;70385;44.538;18.532;2024-03-23T10:00:34;18.52;;;5.90;;
80926;SDS011;70385;44.538;18.532;2024-03-23T10:03:01;14.27;;;6.22;;
80926;SDS011;70385;44.538;18.532;2024-03-23T10:05:28;13.40;;;5.95;;
80926;SDS011;70385;44.538;18.532;2024-03-23T10:07:57;17.40;;;5.75;;
80926;SDS011;70385;44.538;18.532;2024-03-23T10:10:25;14.68;;;5.85;;
80926;SDS011;70385;44.538;18.532;2024-03-23T10:12:51;12.00;;;5.13;;
80926;SDS011;70385;44.538;18.532;2024-03-23T10:15:18;9.10;;;4.57;;
80926;SDS011;70385;44.538;18.532;2024-03-23T10:17:51;11.48;;;5.55;;
80926;SDS011;70385;44.538;18.532;2024-03-23T10:20:21;9.18;;;5.47;;
80926;SDS011;70385;44.538;18.532;2024-03-23T10:22:50;14.88;;;5.35;;
80926;SDS011;70385;44.538;18.532;2024-03-23T10:25:22;10.80;;;5.43;;
80926;SDS011;70385;44.538;18.532;2024-03-23T10:27:58;18.80;;;5.50;;
80926;SDS011;70385;44.538;18.532;2024-03-23T10:30:25;11.32;;;5.38;;
80926;SDS011;70385;44.538;18.532;2024-03-23T10:35:37;14.63;;;5.25;;
80926;SDS011;70385;44.538;18.532;2024-03-23T10:38:07;11.95;;;4.90;;
80926;SDS011;70385;44.538;18.532;2024-03-23T10:40:34;9.93;;;5.18;;
80926;SDS011;70385;44.538;18.532;2024-03-23T10:43:00;9.02;;;4.85;;
80926;SDS011;70385;44.538;18.532;2024-03-23T10:45:29;7.97;;;4.20;;
80926;SDS011;70385;44.538;18.532;2024-03-23T10:47:55;9.80;;;4.47;;
80926;SDS011;70385;44.538;18.532;2024-03-23T10:50:24;10.07;;;4.43;;
80926;SDS011;70385;44.538;18.532;2024-03-23T10:52:50;10.05;;;4.10;;
80926;SDS011;70385;44.538;18.532;2024-03-23T10:55:18;13.77;;;3.17;;
80926;SDS011;70385;44.538;18.532;2024-03-23T11:00:21;6.30;;;2.70;;
80926;SDS011;70385;44.538;18.532;2024-03-23T11:02:48;9.35;;;3.28;;
80926;SDS011;70385;44.538;18.532;2024-03-23T11:05:27;7.95;;;3.55;;
80926;SDS011;70385;44.538;18.532;2024-03-23T11:07:57;21.15;;;7.50;;
80926;SDS011;70385;44.538;18.532;2024-03-23T11:10:27;10.60;;;4.75;;
80926;SDS011;70385;44.538;18.532;2024-03-23T11:12:57;6.38;;;3.78;;
80926;SDS011;70385;44.538;18.532;2024-03-23T11:15:23;12.20;;;5.43;;
80926;SDS011;70385;44.538;18.532;2024-03-23T11:18:06;16.77;;;7.07;;
80926;SDS011;70385;44.538;18.532;2024-03-23T11:20:34;10.52;;;3.20;;
80926;SDS011;70385;44.538;18.532;2024-03-23T11:23:04;2.85;;;1.90;;
80926;SDS011;70385;44.538;18.532;2024-03-23T11:25:30;6.75;;;2.20;;
80926;SDS011;70385;44.538;18.532;2024-03-23T11:28:11;6.60;;;2.70;;
80926;SDS011;70385;44.538;18.532;2024-03-23T11:30:37;3.70;;;2.17;;
80926;SDS011;70385;44.538;18.532;2024-03-23T11:33:04;3.42;;;2.08;;
80926;SDS011;70385;44.538;18.532;2024-03-23T11:38:03;8.35;;;3.35;;
80926;SDS011;70385;44.538;18.532;2024-03-23T11:40:31;13.88;;;3.70;;
80926;SDS011;70385;44.538;18.532;2024-03-23T11:42:58;16.70;;;4.03;;
80926;SDS011;70385;44.538;18.532;2024-03-23T11:45:25;4.20;;;2.17;;
80926;SDS011;70385;44.538;18.532;2024-03-23T11:48:04;5.53;;;2.42;;
80926;SDS011;70385;44.538;18.532;2024-03-23T11:50:32;6.55;;;2.60;;
80926;SDS011;70385;44.538;18.532;2024-03-23T11:53:20;5.93;;;2.90;;
80926;SDS011;70385;44.538;18.532;2024-03-23T11:55:51;4.30;;;3.10;;
80926;SDS011;70385;44.538;18.532;2024-03-23T11:58:18;9.65;;;3.92;;
80926;SDS011;70385;44.538;18.532;2024-03-23T12:03:23;10.85;;;3.80;;
80926;SDS011;70385;44.538;18.532;2024-03-23T12:05:54;9.85;;;3.65;;
80926;SDS011;70385;44.538;18.532;2024-03-23T12:11:07;8.88;;;2.63;;
80926;SDS011;70385;44.538;18.532;2024-03-23T12:13:36;5.22;;;2.72;;
80926;SDS011;70385;44.538;18.532;2024-03-23T12:16:09;6.07;;;3.25;;
80926;SDS011;70385;44.538;18.532;2024-03-23T12:18:39;6.85;;;2.10;;
80926;SDS011;70385;44.538;18.532;2024-03-23T12:21:09;5.90;;;3.15;;
80926;SDS011;70385;44.538;18.532;2024-03-23T12:23:38;6.15;;;3.35;;
80926;SDS011;70385;44.538;18.532;2024-03-23T12:26:05;7.85;;;2.88;;
80926;SDS011;70385;44.538;18.532;2024-03-23T12:28:31;9.35;;;3.15;;
80926;SDS011;70385;44.538;18.532;2024-03-23T12:30:57;11.80;;;3.13;;
80926;SDS011;70385;44.538;18.532;2024-03-23T12:33:23;10.05;;;3.42;;
80926;SDS011;70385;44.538;18.532;2024-03-23T12:39:02;14.48;;;3.90;;
80926;SDS011;70385;44.538;18.532;2024-03-23T12:41:27;11.88;;;3.65;;
80926;SDS011;70385;44.538;18.532;2024-03-23T12:43:54;9.45;;;3.58;;
80926;SDS011;70385;44.538;18.532;2024-03-23T12:46:19;15.50;;;3.30;;
80926;SDS011;70385;44.538;18.532;2024-03-23T12:48:45;18.17;;;4.13;;
80926;SDS011;70385;44.538;18.532;2024-03-23T12:51:11;13.27;;;2.90;;
80926;SDS011;70385;44.538;18.532;2024-03-23T12:53:37;4.53;;;2.95;;
80926;SDS011;70385;44.538;18.532;2024-03-23T12:56:03;11.80;;;3.70;;
80926;SDS011;70385;44.538;18.532;2024-03-23T12:58:29;18.60;;;4.65;;
80926;SDS011;70385;44.538;18.532;2024-03-23T13:00:55;9.77;;;4.13;;
80926;SDS011;70385;44.538;18.532;2024-03-23T13:03:23;14.32;;;3.97;;
80926;SDS011;70385;44.538;18.532;2024-03-23T13:05:52;8.52;;;3.60;;
80926;SDS011;70385;44.538;18.532;2024-03-23T13:08:18;8.05;;;3.25;;
80926;SDS011;70385;44.538;18.532;2024-03-23T13:10:44;11.27;;;3.55;;
80926;SDS011;70385;44.538;18.532;2024-03-23T13:13:10;7.32;;;3.10;;
80926;SDS011;70385;44.538;18.532;2024-03-23T13:15:36;12.27;;;3.85;;
80926;SDS011;70385;44.538;18.532;2024-03-23T13:18:02;6.68;;;3.60;;
80926;SDS011;70385;44.538;18.532;2024-03-23T13:20:28;5.88;;;3.05;;
80926;SDS011;70385;44.538;18.532;2024-03-23T13:22:54;10.95;;;3.55;;
80926;SDS011;70385;44.538;18.532;2024-03-23T13:25:20;5.03;;;2.78;;
80926;SDS011;70385;44.538;18.532;2024-03-23T13:27:45;10.70;;;4.28;;
80926;SDS011;70385;44.538;18.532;2024-03-23T13:30:14;23.55;;;4.47;;
80926;SDS011;70385;44.538;18.532;2024-03-23T13:32:39;19.23;;;4.20;;
80926;SDS011;70385;44.538;18.532;2024-03-23T13:35:06;11.27;;;4.00;;
80926;SDS011;70385;44.538;18.532;2024-03-23T13:37:34;10.93;;;4.15;;
80926;SDS011;70385;44.538;18.532;2024-03-23T13:40:00;5.72;;;3.13;;
80926;SDS011;70385;44.538;18.532;2024-03-23T13:42:30;11.73;;;3.42;;
80926;SDS011;70385;44.538;18.532;2024-03-23T13:44:56;14.05;;;4.50;;
80926;SDS011;70385;44.538;18.532;2024-03-23T13:47:21;13.48;;;2.80;;
80926;SDS011;70385;44.538;18.532;2024-03-23T13:49:47;4.15;;;2.60;;
80926;SDS011;70385;44.538;18.532;2024-03-23T13:52:14;11.68;;;3.47;;
80926;SDS011;70385;44.538;18.532;2024-03-23T13:54:40;23.88;;;4.43;;
80926;SDS011;70385;44.538;18.532;2024-03-23T13:57:11;17.05;;;3.72;;
80926;SDS011;70385;44.538;18.532;2024-03-23T13:59:38;9.20;;;5.90;;
80926;SDS011;70385;44.538;18.532;2024-03-23T14:02:03;15.85;;;4.70;;
80926;SDS011;70385;44.538;18.532;2024-03-23T14:07:35;10.35;;;3.47;;
80926;SDS011;70385;44.538;18.532;2024-03-23T14:10:03;23.90;;;6.25;;
80926;SDS011;70385;44.538;18.532;2024-03-23T14:12:36;14.02;;;4.90;;
80926;SDS011;70385;44.538;18.532;2024-03-23T14:15:06;7.85;;;4.40;;
80926;SDS011;70385;44.538;18.532;2024-03-23T14:17:34;8.15;;;3.60;;
80926;SDS011;70385;44.538;18.532;2024-03-23T14:20:03;5.85;;;3.53;;
80926;SDS011;70385;44.538;18.532;2024-03-23T14:22:31;9.38;;;3.83;;
80926;SDS011;70385;44.538;18.532;2024-03-23T14:25:01;14.55;;;4.25;;
80926;SDS011;70385;44.538;18.532;2024-03-23T14:27:30;7.32;;;3.05;;
80926;SDS011;70385;44.538;18.532;2024-03-23T14:29:58;7.88;;;2.80;;
80926;SDS011;70385;44.538;18.532;2024-03-23T14:32:27;12.93;;;3.17;;
80926;SDS011;70385;44.538;18.532;2024-03-23T14:39:06;11.55;;;2.83;;
80926;SDS011;70385;44.538;18.532;2024-03-23T14:41:33;7.40;;;2.88;;
80926;SDS011;70385;44.538;18.532;2024-03-23T14:47:03;9.10;;;3.42;;
80926;SDS011;70385;44.538;18.532;2024-03-23T14:49:36;3.53;;;2.50;;
80926;SDS011;70385;44.538;18.532;2024-03-23T14:52:01;4.95;;;2.53;;
80926;SDS011;70385;44.538;18.532;2024-03-23T14:54:30;4.88;;;3.00;;
80926;SDS011;70385;44.538;18.532;2024-03-23T14:57:23;2.70;;;2.40;;
80926;SDS011;70385;44.538;18.532;2024-03-23T15:00:02;5.38;;;2.70;;
80926;SDS011;70385;44.538;18.532;2024-03-23T15:02:38;3.75;;;2.63;;
80926;SDS011;70385;44.538;18.532;2024-03-23T15:05:05;4.38;;;2.55;;
80926;SDS011;70385;44.538;18.532;2024-03-23T15:07:38;3.88;;;2.58;;
80926;SDS011;70385;44.538;18.532;2024-03-23T15:10:10;6.47;;;3.22;;
80926;SDS011;70385;44.538;18.532;2024-03-23T15:12:36;4.50;;;2.60;;
80926;SDS011;70385;44.538;18.532;2024-03-23T15:15:03;7.35;;;2.70;;
80926;SDS011;70385;44.538;18.532;2024-03-23T15:17:29;4.65;;;2.55;;
80926;SDS011;70385;44.538;18.532;2024-03-23T15:19:59;8.45;;;2.75;;
80926;SDS011;70385;44.538;18.532;2024-03-23T15:22:25;4.78;;;3.13;;
80926;SDS011;70385;44.538;18.532;2024-03-23T15:24:52;5.57;;;2.88;;
80926;SDS011;70385;44.538;18.532;2024-03-23T15:27:19;7.97;;;3.00;;
80926;SDS011;70385;44.538;18.532;2024-03-23T15:29:45;6.93;;;3.53;;
80926;SDS011;70385;44.538;18.532;2024-03-23T15:32:11;6.10;;;3.42;;
80926;SDS011;70385;44.538;18.532;2024-03-23T15:34:37;6.35;;;3.30;;
80926;SDS011;70385;44.538;18.532;2024-03-23T15:37:04;5.15;;;2.67;;
80926;SDS011;70385;44.538;18.532;2024-03-23T15:39:30;3.30;;;2.60;;